Time;durP1;ratioP1;P1;durP2;ratioP2;P2;SDS_P1;SDS_P2;PMS_P1;PMS_P2;Temp;Humidity;BMP_temperature;BMP_pressure;BME280_temperature;BME280_humidity;BME280_pressure;Samples;Min_cycle;Max_cycle;Signal;HPM_P1;HPM_P2
2023/03/05 00:01:05;;;;;;;34.03;16.67;;;;;;;;;;5042000;28;20193;-73
2023/03/05 00:03:31;;;;;;;30.70;15.73;;;;;;;;;;5043945;28;20252;-73
2023/03/05 00:05:57;;;;;;;54.60;22.80;;;;;;;;;;5043399;28;20182;-72
2023/03/05 00:08:23;;;;;;;37.23;18.13;;;;;;;;;;5041500;28;20308;-72
2023/03/05 00:10:59;;;;;;;40.00;17.60;;;;;;;;;;5041839;28;20628;-72
2023/03/05 00:13:25;;;;;;;31.57;16.27;;;;;;;;;;5045920;28;20201;-72
2023/03/05 00:15:52;;;;;;;30.67;15.40;;;;;;;;;;5046656;28;20202;-72
2023/03/05 00:18:19;;;;;;;31.10;15.47;;;;;;;;;;5043281;28;20182;-73
2023/03/05 00:20:45;;;;;;;31.83;15.57;;;;;;;;;;5043243;28;20185;-73
2023/03/05 00:23:11;;;;;;;30.80;15.13;;;;;;;;;;5043910;28;20209;-73
2023/03/05 00:25:39;;;;;;;27.20;14.60;;;;;;;;;;5043080;28;20262;-73
2023/03/05 00:28:05;;;;;;;30.27;15.50;;;;;;;;;;5058379;28;20181;-72
2023/03/05 00:30:32;;;;;;;26.67;14.20;;;;;;;;;;5048219;28;22005;-73
2023/03/05 00:32:58;;;;;;;30.00;14.93;;;;;;;;;;5042515;28;20484;-73
2023/03/05 00:35:24;;;;;;;31.70;15.30;;;;;;;;;;5042116;28;20213;-73
2023/03/05 00:37:50;;;;;;;30.47;14.67;;;;;;;;;;5046368;28;20170;-73
2023/03/05 00:40:16;;;;;;;31.60;15.23;;;;;;;;;;5041785;28;20606;-72
2023/03/05 00:42:43;;;;;;;27.87;14.97;;;;;;;;;;5040435;28;20280;-73
2023/03/05 00:45:10;;;;;;;28.77;14.93;;;;;;;;;;5025061;28;20236;-73
2023/03/05 00:47:36;;;;;;;32.40;16.20;;;;;;;;;;5040523;28;20234;-73
2023/03/05 00:50:04;;;;;;;29.47;14.97;;;;;;;;;;5036189;28;20198;-73
2023/03/05 00:52:32;;;;;;;28.03;15.33;;;;;;;;;;5039358;28;20210;-73
2023/03/05 00:54:58;;;;;;;31.87;15.17;;;;;;;;;;5038368;28;20224;-73
2023/03/05 00:57:24;;;;;;;29.57;15.17;;;;;;;;;;5021364;28;20204;-72
2023/03/05 00:59:51;;;;;;;32.67;15.43;;;;;;;;;;5039420;28;20186;-73
2023/03/05 01:02:17;;;;;;;28.50;14.53;;;;;;;;;;5039512;28;20602;-72
2023/03/05 01:04:46;;;;;;;30.83;16.47;;;;;;;;;;5047288;28;20198;-71
2023/03/05 01:07:12;;;;;;;32.27;15.23;;;;;;;;;;5048689;28;20802;-72
2023/03/05 01:09:38;;;;;;;27.93;14.73;;;;;;;;;;5047223;28;20258;-73
2023/03/05 01:12:04;;;;;;;30.03;15.37;;;;;;;;;;5046585;28;20220;-72
2023/03/05 01:14:31;;;;;;;29.00;15.53;;;;;;;;;;5044932;28;20213;-72
2023/03/05 01:16:57;;;;;;;33.47;15.93;;;;;;;;;;5046239;28;20235;-73
2023/03/05 01:19:23;;;;;;;34.20;16.80;;;;;;;;;;5050833;28;20185;-73
2023/03/05 01:21:49;;;;;;;28.90;14.57;;;;;;;;;;5047777;28;20289;-73
2023/03/05 01:24:15;;;;;;;29.00;14.87;;;;;;;;;;5047325;28;20256;-73
2023/03/05 01:26:41;;;;;;;28.53;14.60;;;;;;;;;;5063490;28;20188;-74
2023/03/05 01:29:08;;;;;;;29.87;14.80;;;;;;;;;;5046959;28;20661;-72
2023/03/05 01:31:34;;;;;;;31.10;15.83;;;;;;;;;;5045558;28;20213;-72
2023/03/05 01:34:00;;;;;;;34.65;18.67;;;;;;;;;;5043272;28;20429;-71
2023/03/05 01:36:26;;;;;;;31.73;15.57;;;;;;;;;;5048691;28;20278;-72
2023/03/05 01:38:53;;;;;;;29.70;16.03;;;;;;;;;;5039629;28;20182;-72
2023/03/05 01:41:19;;;;;;;30.67;15.80;;;;;;;;;;5040024;28;20693;-73
2023/03/05 01:43:47;;;;;;;35.17;15.17;;;;;;;;;;5039998;28;20231;-72
2023/03/05 01:46:28;;;;;;;28.47;14.80;;;;;;;;;;5023076;28;20661;-73
2023/03/05 01:48:55;;;;;;;28.93;14.87;;;;;;;;;;5044927;28;20243;-72
2023/03/05 01:51:23;;;;;;;29.17;15.50;;;;;;;;;;5045997;28;20280;-72
2023/03/05 01:53:49;;;;;;;30.63;14.63;;;;;;;;;;5047810;28;20568;-72
2023/03/05 01:56:16;;;;;;;29.27;14.90;;;;;;;;;;5047875;28;20205;-73
2023/03/05 01:58:43;;;;;;;29.07;14.50;;;;;;;;;;5042056;28;20190;-73
2023/03/05 02:01:09;;;;;;;30.03;15.50;;;;;;;;;;5044407;28;20182;-73
2023/03/05 02:03:36;;;;;;;32.80;17.80;;;;;;;;;;5044207;28;20506;-72
2023/03/05 02:06:02;;;;;;;29.53;16.17;;;;;;;;;;5046052;28;20178;-72
2023/03/05 02:08:28;;;;;;;26.50;14.57;;;;;;;;;;5045339;28;20182;-72
2023/03/05 02:10:56;;;;;;;30.10;14.67;;;;;;;;;;5038150;28;20190;-72
2023/03/05 02:13:27;;;;;;;27.53;14.97;;;;;;;;;;5043563;28;20228;-72
2023/03/05 02:15:55;;;;;;;29.10;14.53;;;;;;;;;;5052050;28;20685;-71
2023/03/05 02:18:21;;;;;;;29.27;15.00;;;;;;;;;;5047210;28;20185;-72
2023/03/05 02:20:49;;;;;;;25.53;13.17;;;;;;;;;;5051013;28;20527;-73
2023/03/05 02:23:16;;;;;;;30.13;15.20;;;;;;;;;;5046895;28;20221;-72
2023/03/05 02:25:42;;;;;;;30.23;14.70;;;;;;;;;;5050231;28;20190;-73
2023/03/05 02:28:14;;;;;;;27.63;14.40;;;;;;;;;;5051188;28;20177;-72
2023/03/05 02:30:40;;;;;;;30.93;14.80;;;;;;;;;;5044705;28;20224;-73
2023/03/05 02:33:07;;;;;;;31.60;14.43;;;;;;;;;;5050414;28;20260;-72
2023/03/05 02:35:33;;;;;;;34.53;16.20;;;;;;;;;;5041374;28;20194;-73
2023/03/05 02:38:00;;;;;;;32.17;15.70;;;;;;;;;;5047468;28;20178;-72
2023/03/05 02:40:30;;;;;;;32.47;16.20;;;;;;;;;;5044972;28;20182;-72
2023/03/05 02:42:57;;;;;;;32.23;15.73;;;;;;;;;;5045890;28;20720;-72
2023/03/05 02:45:23;;;;;;;30.60;15.47;;;;;;;;;;5051408;28;20293;-72
2023/03/05 02:47:50;;;;;;;34.60;15.83;;;;;;;;;;5030719;28;20193;-73
2023/03/05 02:50:16;;;;;;;30.87;15.07;;;;;;;;;;5045697;28;20194;-73
2023/03/05 02:52:42;;;;;;;29.10;15.23;;;;;;;;;;5049760;28;20264;-73
2023/03/05 02:55:13;;;;;;;31.57;14.60;;;;;;;;;;5043736;28;20692;-71
2023/03/05 02:57:40;;;;;;;29.40;15.00;;;;;;;;;;5042778;28;20186;-71
2023/03/05 03:00:07;;;;;;;30.67;15.43;;;;;;;;;;5046134;28;20196;-71
2023/03/05 03:02:33;;;;;;;29.87;15.17;;;;;;;;;;5045346;28;20200;-70
2023/03/05 03:05:00;;;;;;;37.20;18.00;;;;;;;;;;5046067;28;20272;-69
2023/03/05 03:07:30;;;;;;;31.70;15.50;;;;;;;;;;5049793;28;20550;-69
2023/03/05 03:09:56;;;;;;;33.57;15.80;;;;;;;;;;5043998;28;20676;-70
2023/03/05 03:12:22;;;;;;;33.43;15.67;;;;;;;;;;5041942;28;20212;-71
2023/03/05 03:14:48;;;;;;;35.07;16.40;;;;;;;;;;5049048;28;20680;-71
2023/03/05 03:17:16;;;;;;;32.17;15.77;;;;;;;;;;5047815;28;20185;-71
2023/03/05 03:19:43;;;;;;;32.33;15.60;;;;;;;;;;5044126;28;20190;-71
2023/03/05 03:22:09;;;;;;;29.37;14.97;;;;;;;;;;5043225;28;20212;-71
2023/03/05 03:24:36;;;;;;;27.87;14.37;;;;;;;;;;5042219;28;20192;-71
2023/03/05 03:27:02;;;;;;;32.00;15.47;;;;;;;;;;5045179;28;20194;-71
2023/03/05 03:29:29;;;;;;;29.77;14.70;;;;;;;;;;5044044;28;20621;-70
2023/03/05 03:31:55;;;;;;;31.87;16.23;;;;;;;;;;5047423;28;20208;-72
2023/03/05 03:34:21;;;;;;;29.10;14.07;;;;;;;;;;5047957;28;20252;-72
2023/03/05 03:36:48;;;;;;;31.57;14.93;;;;;;;;;;5047133;28;20185;-70
2023/03/05 03:39:15;;;;;;;27.83;14.33;;;;;;;;;;5048646;28;20518;-70
2023/03/05 03:41:42;;;;;;;31.17;14.77;;;;;;;;;;5063735;28;20236;-69
2023/03/05 03:44:09;;;;;;;27.53;13.90;;;;;;;;;;5045751;28;20186;-70
2023/03/05 03:46:36;;;;;;;29.30;15.47;;;;;;;;;;5044648;28;20204;-70
2023/03/05 03:49:02;;;;;;;30.50;14.70;;;;;;;;;;5051401;28;20181;-71
2023/03/05 03:51:28;;;;;;;30.23;14.60;;;;;;;;;;5048820;28;20213;-73
2023/03/05 03:53:55;;;;;;;30.67;14.17;;;;;;;;;;5047765;28;20174;-73
2023/03/05 03:56:21;;;;;;;31.73;14.50;;;;;;;;;;5047504;28;20685;-73
2023/03/05 03:58:50;;;;;;;30.00;14.60;;;;;;;;;;5044798;28;20186;-73
2023/03/05 04:01:16;;;;;;;28.60;14.33;;;;;;;;;;5048169;28;20887;-73
2023/03/05 04:03:42;;;;;;;32.43;15.50;;;;;;;;;;5047874;28;20657;-72
2023/03/05 04:06:09;;;;;;;28.77;14.77;;;;;;;;;;5048096;28;20189;-73
2023/03/05 04:08:35;;;;;;;27.80;14.23;;;;;;;;;;5048231;28;20235;-74
2023/03/05 04:11:02;;;;;;;26.80;14.57;;;;;;;;;;5044684;28;20660;-73
2023/03/05 04:13:28;;;;;;;27.20;14.53;;;;;;;;;;5047313;28;20198;-72
2023/03/05 04:15:54;;;;;;;29.73;14.50;;;;;;;;;;5043358;28;20217;-73
2023/03/05 04:18:21;;;;;;;27.40;14.93;;;;;;;;;;5042846;28;20213;-73
2023/03/05 04:20:47;;;;;;;29.77;14.90;;;;;;;;;;5043469;28;20186;-73
2023/03/05 04:23:13;;;;;;;28.07;13.90;;;;;;;;;;5043854;28;20202;-73
2023/03/05 04:25:39;;;;;;;26.97;13.97;;;;;;;;;;5042133;28;20276;-73
2023/03/05 04:28:05;;;;;;;29.17;15.17;;;;;;;;;;5041057;28;20193;-73
2023/03/05 04:30:32;;;;;;;27.87;14.83;;;;;;;;;;5038478;28;20193;-74
2023/03/05 04:32:58;;;;;;;25.83;14.67;;;;;;;;;;5058405;28;20259;-73
2023/03/05 04:35:24;;;;;;;31.87;15.77;;;;;;;;;;5043673;28;20673;-74
2023/03/05 04:37:50;;;;;;;31.33;15.83;;;;;;;;;;5043996;28;20189;-73
2023/03/05 04:40:16;;;;;;;30.77;15.93;;;;;;;;;;5042938;28;20185;-74
2023/03/05 04:42:43;;;;;;;27.87;14.30;;;;;;;;;;5043660;28;20292;-73
2023/03/05 04:45:09;;;;;;;34.00;15.63;;;;;;;;;;5041200;28;20599;-73
2023/03/05 04:47:36;;;;;;;31.87;16.03;;;;;;;;;;5044873;28;20236;-74
2023/03/05 04:50:03;;;;;;;28.97;15.17;;;;;;;;;;5043309;28;20628;-73
2023/03/05 04:52:29;;;;;;;26.90;13.50;;;;;;;;;;5042772;28;20263;-73
2023/03/05 04:54:55;;;;;;;30.10;15.03;;;;;;;;;;5042487;28;20232;-72
2023/03/05 04:57:21;;;;;;;30.07;13.60;;;;;;;;;;5042899;28;20649;-72
2023/03/05 04:59:48;;;;;;;26.53;14.43;;;;;;;;;;5042675;28;20216;-72
2023/03/05 05:02:14;;;;;;;29.52;14.02;;;;;;;;;;5042144;28;20392;-73
2023/03/05 05:04:43;;;;;;;31.00;14.50;;;;;;;;;;5045831;28;20202;-73
2023/03/05 05:07:10;;;;;;;25.40;13.30;;;;;;;;;;5041279;28;20269;-73
2023/03/05 05:09:40;;;;;;;27.23;14.27;;;;;;;;;;5048103;28;20268;-73
2023/03/05 05:12:06;;;;;;;35.30;17.40;;;;;;;;;;5045713;28;20206;-74
2023/03/05 05:14:33;;;;;;;34.03;15.90;;;;;;;;;;5047799;28;20809;-73
2023/03/05 05:17:00;;;;;;;33.80;15.73;;;;;;;;;;5046107;28;20173;-73
2023/03/05 05:19:26;;;;;;;34.10;16.10;;;;;;;;;;5041859;28;20186;-73
2023/03/05 05:21:52;;;;;;;33.03;15.13;;;;;;;;;;5042331;28;20241;-72
2023/03/05 05:24:18;;;;;;;30.73;15.77;;;;;;;;;;5041594;28;20211;-73
2023/03/05 05:26:45;;;;;;;32.63;15.23;;;;;;;;;;5041557;28;20197;-73
2023/03/05 05:29:11;;;;;;;32.30;15.57;;;;;;;;;;5044181;28;20177;-73
2023/03/05 05:31:37;;;;;;;31.53;16.70;;;;;;;;;;5043036;28;20284;-73
2023/03/05 05:34:04;;;;;;;32.03;15.70;;;;;;;;;;5044629;28;20265;-74
2023/03/05 05:36:30;;;;;;;32.20;15.67;;;;;;;;;;5041432;28;20184;-73
2023/03/05 05:38:56;;;;;;;33.30;16.07;;;;;;;;;;5044359;28;20732;-73
2023/03/05 05:41:22;;;;;;;30.17;15.37;;;;;;;;;;5042034;28;20216;-73
2023/03/05 05:43:48;;;;;;;32.30;15.50;;;;;;;;;;5041147;28;20217;-72
2023/03/05 05:46:16;;;;;;;29.07;14.93;;;;;;;;;;5041010;28;20238;-71
2023/03/05 05:48:42;;;;;;;32.67;15.60;;;;;;;;;;5045849;28;20703;-74
2023/03/05 05:51:10;;;;;;;27.37;14.80;;;;;;;;;;5048127;28;20331;-73
2023/03/05 05:53:37;;;;;;;30.33;15.27;;;;;;;;;;5042216;28;20185;-72
2023/03/05 05:56:08;;;;;;;29.97;15.37;;;;;;;;;;5040988;28;20243;-73
2023/03/05 05:58:34;;;;;;;31.20;15.40;;;;;;;;;;5042328;28;20242;-72
2023/03/05 06:01:01;;;;;;;32.07;15.03;;;;;;;;;;5040243;28;20562;-73
2023/03/05 06:03:27;;;;;;;32.47;15.60;;;;;;;;;;5040840;28;20648;-73
2023/03/05 06:05:53;;;;;;;34.05;15.88;;;;;;;;;;5042406;28;20425;-73
2023/03/05 06:08:19;;;;;;;35.43;15.90;;;;;;;;;;5048543;28;20718;-71
2023/03/05 06:10:52;;;;;;;32.07;16.17;;;;;;;;;;5048934;28;20186;-74
2023/03/05 06:13:19;;;;;;;33.27;16.23;;;;;;;;;;5047979;28;20386;-72
2023/03/05 06:15:45;;;;;;;29.73;15.70;;;;;;;;;;5045628;28;20208;-74
2023/03/05 06:18:11;;;;;;;33.20;16.43;;;;;;;;;;5046626;28;20178;-73
2023/03/05 06:20:37;;;;;;;32.43;16.77;;;;;;;;;;5048166;28;20261;-73
2023/03/05 06:23:04;;;;;;;34.00;15.77;;;;;;;;;;5047534;28;20247;-73
2023/03/05 06:25:30;;;;;;;35.30;16.40;;;;;;;;;;5048611;28;20273;-73
2023/03/05 06:27:56;;;;;;;33.87;16.97;;;;;;;;;;5050237;28;20181;-73
2023/03/05 06:30:22;;;;;;;35.03;15.90;;;;;;;;;;5049514;28;20204;-74
2023/03/05 06:32:48;;;;;;;33.77;16.37;;;;;;;;;;5047621;28;20206;-74
2023/03/05 06:35:14;;;;;;;30.13;15.33;;;;;;;;;;5047490;28;20233;-72
2023/03/05 06:37:40;;;;;;;34.53;16.90;;;;;;;;;;5046152;28;20581;-70
2023/03/05 06:40:07;;;;;;;28.80;14.87;;;;;;;;;;5049707;28;20243;-72
2023/03/05 06:42:34;;;;;;;29.50;15.10;;;;;;;;;;5046868;28;20194;-73
2023/03/05 06:45:00;;;;;;;33.10;15.50;;;;;;;;;;5046410;28;20186;-73
2023/03/05 06:47:26;;;;;;;36.63;17.13;;;;;;;;;;5048036;28;20182;-73
2023/03/05 06:49:52;;;;;;;31.93;15.90;;;;;;;;;;5048985;28;20676;-72
2023/03/05 06:52:18;;;;;;;30.37;15.90;;;;;;;;;;5048075;28;20340;-72
2023/03/05 06:54:45;;;;;;;38.77;16.97;;;;;;;;;;5044915;28;20206;-73
2023/03/05 06:57:12;;;;;;;35.07;16.93;;;;;;;;;;5045317;28;20264;-74
2023/03/05 06:59:38;;;;;;;35.30;16.47;;;;;;;;;;5038373;28;20182;-74
2023/03/05 07:02:04;;;;;;;32.87;16.03;;;;;;;;;;5047077;28;20638;-73
2023/03/05 07:04:30;;;;;;;36.53;16.97;;;;;;;;;;5050519;28;20202;-73
2023/03/05 07:06:58;;;;;;;33.93;16.47;;;;;;;;;;5047659;28;20226;-73
2023/03/05 07:09:24;;;;;;;36.60;16.97;;;;;;;;;;5048203;28;20183;-74
2023/03/05 07:11:50;;;;;;;36.00;17.37;;;;;;;;;;5048940;28;20627;-73
2023/03/05 07:14:16;;;;;;;34.63;16.87;;;;;;;;;;5051124;28;20578;-73
2023/03/05 07:16:42;;;;;;;32.97;16.27;;;;;;;;;;5046418;28;20186;-73
2023/03/05 07:19:09;;;;;;;29.37;16.23;;;;;;;;;;5043925;28;20191;-73
2023/03/05 07:21:35;;;;;;;34.87;16.17;;;;;;;;;;5050569;28;20598;-74
2023/03/05 07:24:02;;;;;;;34.57;17.50;;;;;;;;;;5048212;28;20181;-73
2023/03/05 07:26:29;;;;;;;33.03;17.13;;;;;;;;;;5047126;28;20182;-72
2023/03/05 07:28:56;;;;;;;34.73;17.73;;;;;;;;;;5046849;28;20189;-72
2023/03/05 07:31:25;;;;;;;29.53;15.97;;;;;;;;;;5040624;28;20251;-72
2023/03/05 07:33:52;;;;;;;29.90;15.90;;;;;;;;;;5045964;28;20190;-71
2023/03/05 07:36:18;;;;;;;36.00;17.70;;;;;;;;;;5048938;28;20300;-71
2023/03/05 07:38:44;;;;;;;33.97;17.30;;;;;;;;;;5051812;28;20616;-74
2023/03/05 07:41:12;;;;;;;31.97;17.00;;;;;;;;;;5052046;28;20177;-73
2023/03/05 07:43:38;;;;;;;30.77;16.80;;;;;;;;;;5050887;28;20214;-75
2023/03/05 07:46:08;;;;;;;35.17;17.23;;;;;;;;;;5049383;28;20198;-73
2023/03/05 07:48:34;;;;;;;35.27;17.60;;;;;;;;;;5048365;28;20194;-73
2023/03/05 07:51:05;;;;;;;35.57;18.13;;;;;;;;;;5049448;28;20295;-73
2023/03/05 07:53:31;;;;;;;32.37;17.03;;;;;;;;;;5049552;28;20292;-73
2023/03/05 07:55:58;;;;;;;37.90;19.20;;;;;;;;;;5050762;28;20608;-73
2023/03/05 07:58:24;;;;;;;34.53;18.90;;;;;;;;;;5051945;28;20189;-73
2023/03/05 08:00:50;;;;;;;34.47;18.23;;;;;;;;;;5042664;28;20182;-74
2023/03/05 08:03:17;;;;;;;34.47;19.10;;;;;;;;;;5043951;28;20607;-74
2023/03/05 08:05:43;;;;;;;36.30;19.37;;;;;;;;;;5046761;28;20178;-72
2023/03/05 08:08:09;;;;;;;35.57;19.10;;;;;;;;;;5031297;28;20193;-72
2023/03/05 08:10:36;;;;;;;34.30;18.80;;;;;;;;;;5047654;28;20685;-73
2023/03/05 08:13:02;;;;;;;31.43;17.57;;;;;;;;;;5045689;28;20831;-74
2023/03/05 08:15:30;;;;;;;36.40;18.03;;;;;;;;;;5050294;28;20216;-73
2023/03/05 08:17:56;;;;;;;30.87;17.30;;;;;;;;;;5046046;28;20242;-70
2023/03/05 08:20:23;;;;;;;36.37;17.17;;;;;;;;;;5049387;28;20252;-73
2023/03/05 08:22:49;;;;;;;31.57;17.37;;;;;;;;;;5059125;28;20210;-72
2023/03/05 08:25:15;;;;;;;33.43;18.17;;;;;;;;;;5049410;28;20186;-71
2023/03/05 08:27:42;;;;;;;33.53;18.20;;;;;;;;;;5048836;28;20189;-72
2023/03/05 08:30:11;;;;;;;31.87;18.20;;;;;;;;;;5046997;28;20193;-71
2023/03/05 08:32:37;;;;;;;31.40;17.13;;;;;;;;;;5045681;28;20209;-71
2023/03/05 08:35:03;;;;;;;30.97;17.33;;;;;;;;;;5047887;28;20278;-72
2023/03/05 08:37:30;;;;;;;29.97;16.73;;;;;;;;;;5048327;28;20182;-71
2023/03/05 08:39:56;;;;;;;29.87;16.60;;;;;;;;;;5048769;28;20259;-72
2023/03/05 08:42:22;;;;;;;27.53;16.27;;;;;;;;;;5048761;28;20206;-71
2023/03/05 08:44:49;;;;;;;28.50;15.23;;;;;;;;;;5048573;28;20292;-72
2023/03/05 08:47:15;;;;;;;28.63;16.57;;;;;;;;;;5048317;28;20527;-72
2023/03/05 08:49:41;;;;;;;29.50;16.97;;;;;;;;;;5054141;28;20190;-72
2023/03/05 08:52:07;;;;;;;30.87;17.17;;;;;;;;;;5057663;28;20213;-72
2023/03/05 08:54:36;;;;;;;26.50;15.53;;;;;;;;;;5049396;28;20841;-72
2023/03/05 08:57:02;;;;;;;30.37;15.97;;;;;;;;;;5046134;28;20184;-72
2023/03/05 08:59:28;;;;;;;24.93;15.13;;;;;;;;;;5047906;28;20362;-72
2023/03/05 09:01:55;;;;;;;26.13;14.37;;;;;;;;;;5047406;28;20297;-72
2023/03/05 09:04:21;;;;;;;28.17;16.77;;;;;;;;;;5051952;28;20182;-72
2023/03/05 09:06:47;;;;;;;24.90;14.67;;;;;;;;;;5051534;28;20201;-72
2023/03/05 09:09:13;;;;;;;19.63;12.47;;;;;;;;;;5049070;28;20243;-72
2023/03/05 09:11:39;;;;;;;22.73;12.40;;;;;;;;;;5049165;28;20213;-72
2023/03/05 09:14:06;;;;;;;20.90;12.67;;;;;;;;;;5042737;28;20684;-72
2023/03/05 09:16:32;;;;;;;21.57;12.70;;;;;;;;;;5048141;28;20182;-73
2023/03/05 09:18:59;;;;;;;17.27;11.00;;;;;;;;;;5048873;28;20521;-70
2023/03/05 09:21:25;;;;;;;18.90;11.53;;;;;;;;;;5048983;28;20185;-70
2023/03/05 09:23:51;;;;;;;17.20;11.33;;;;;;;;;;5052307;28;20213;-70
2023/03/05 09:26:19;;;;;;;19.50;11.70;;;;;;;;;;5046944;28;20264;-70
2023/03/05 09:28:45;;;;;;;19.60;11.47;;;;;;;;;;5047254;28;20182;-70
2023/03/05 09:31:11;;;;;;;19.93;12.07;;;;;;;;;;5039801;28;20186;-70
2023/03/05 09:33:38;;;;;;;21.97;12.33;;;;;;;;;;5047153;28;20182;-73
2023/03/05 09:36:05;;;;;;;16.90;10.93;;;;;;;;;;5047098;28;20234;-70
2023/03/05 09:38:31;;;;;;;19.00;11.33;;;;;;;;;;5047009;28;20185;-70
2023/03/05 09:41:15;;;;;;;18.13;10.60;;;;;;;;;;5042316;28;20273;-72
2023/03/05 09:44:00;;;;;;;19.03;10.93;;;;;;;;;;5042020;28;20182;-71
2023/03/05 09:46:40;;;;;;;16.00;8.70;;;;;;;;;;5038071;28;20277;-71
2023/03/05 09:49:16;;;;;;;14.10;8.07;;;;;;;;;;5042184;28;20646;-73
2023/03/05 09:51:45;;;;;;;13.17;7.90;;;;;;;;;;5043205;28;20592;-71
2023/03/05 09:54:18;;;;;;;13.30;7.93;;;;;;;;;;5047236;28;20218;-70
2023/03/05 09:56:46;;;;;;;10.90;6.20;;;;;;;;;;5043265;28;20182;-70
2023/03/05 09:59:35;;;;;;;12.70;6.80;;;;;;;;;;5041956;28;20170;-70
2023/03/05 10:02:12;;;;;;;13.13;6.07;;;;;;;;;;5033345;28;20210;-71
2023/03/05 10:05:04;;;;;;;10.57;6.07;;;;;;;;;;5037195;28;20178;-72
2023/03/05 10:07:33;;;;;;;9.67;5.97;;;;;;;;;;5039305;28;20662;-72
2023/03/05 10:10:23;;;;;;;10.47;6.50;;;;;;;;;;5047442;28;20677;-72
2023/03/05 10:13:01;;;;;;;12.37;6.47;;;;;;;;;;5035376;28;20571;-74
2023/03/05 10:15:34;;;;;;;11.50;6.27;;;;;;;;;;5063167;28;20252;-72
2023/03/05 10:18:13;;;;;;;10.13;6.27;;;;;;;;;;5048143;28;20597;-74
2023/03/05 10:20:58;;;;;;;11.90;6.70;;;;;;;;;;5047835;28;20235;-70
2023/03/05 10:23:28;;;;;;;12.00;6.40;;;;;;;;;;5043984;28;20567;-72
2023/03/05 10:25:58;;;;;;;11.30;6.60;;;;;;;;;;5047309;28;20188;-73
2023/03/05 10:28:42;;;;;;;13.03;6.80;;;;;;;;;;5045439;28;20725;-71
2023/03/05 10:31:27;;;;;;;11.27;6.20;;;;;;;;;;5022822;28;20186;-71
2023/03/05 10:34:26;;;;;;;10.73;6.43;;;;;;;;;;5053738;28;20733;-72
2023/03/05 10:37:11;;;;;;;10.17;6.57;;;;;;;;;;5035399;28;20205;-71
2023/03/05 10:39:37;;;;;;;10.37;6.20;;;;;;;;;;5051008;28;20189;-72
2023/03/05 10:42:10;;;;;;;10.23;6.33;;;;;;;;;;5050527;28;20255;-72
2023/03/05 10:44:42;;;;;;;11.63;6.33;;;;;;;;;;5046277;28;20182;-72
2023/03/05 10:47:23;;;;;;;11.77;6.17;;;;;;;;;;5051798;28;20204;-71
2023/03/05 10:49:51;;;;;;;11.67;5.93;;;;;;;;;;5045966;28;20240;-72
2023/03/05 10:52:21;;;;;;;10.87;5.93;;;;;;;;;;5045826;28;20209;-72
2023/03/05 10:54:47;;;;;;;12.17;6.27;;;;;;;;;;5056539;28;20197;-72
2023/03/05 10:57:13;;;;;;;10.20;6.03;;;;;;;;;;5045284;28;20289;-72
2023/03/05 10:59:46;;;;;;;10.63;6.13;;;;;;;;;;5048345;28;20649;-72
2023/03/05 11:02:12;;;;;;;9.50;5.80;;;;;;;;;;5051718;28;20205;-72
2023/03/05 11:04:39;;;;;;;10.80;6.03;;;;;;;;;;5050331;28;20182;-72
2023/03/05 11:07:07;;;;;;;9.40;5.90;;;;;;;;;;5050176;28;20301;-72
2023/03/05 11:09:33;;;;;;;13.27;6.00;;;;;;;;;;5050605;28;20178;-72
2023/03/05 11:11:59;;;;;;;12.10;6.03;;;;;;;;;;5051204;28;20210;-72
2023/03/05 11:14:32;;;;;;;9.27;5.60;;;;;;;;;;5049903;28;20189;-71
2023/03/05 11:16:59;;;;;;;8.67;5.57;;;;;;;;;;5049837;28;20209;-72
2023/03/05 11:19:32;;;;;;;8.10;5.03;;;;;;;;;;5049223;28;20189;-72
2023/03/05 11:22:04;;;;;;;9.50;5.60;;;;;;;;;;5046999;28;20225;-72
2023/03/05 11:24:30;;;;;;;8.60;5.70;;;;;;;;;;5048627;28;20182;-71
2023/03/05 11:26:59;;;;;;;9.33;5.17;;;;;;;;;;5047784;28;20879;-72
2023/03/05 11:29:30;;;;;;;8.30;4.97;;;;;;;;;;5043571;28;20935;-72
2023/03/05 11:32:14;;;;;;;10.47;5.47;;;;;;;;;;5039392;28;20498;-72
2023/03/05 11:34:40;;;;;;;11.33;5.77;;;;;;;;;;5049025;28;20209;-72
2023/03/05 11:37:07;;;;;;;10.50;5.87;;;;;;;;;;5046216;28;20664;-71
2023/03/05 11:39:36;;;;;;;9.77;6.03;;;;;;;;;;5046854;28;20220;-71
2023/03/05 11:42:04;;;;;;;8.47;5.03;;;;;;;;;;5046002;28;20734;-71
2023/03/05 11:44:45;;;;;;;10.50;5.63;;;;;;;;;;5046606;28;20239;-76
2023/03/05 11:47:17;;;;;;;9.73;5.40;;;;;;;;;;5043873;28;20221;-72
2023/03/05 11:49:45;;;;;;;9.50;5.50;;;;;;;;;;5045483;28;20423;-74
2023/03/05 11:52:26;;;;;;;9.63;5.53;;;;;;;;;;5044750;28;20285;-74
2023/03/05 11:54:56;;;;;;;10.60;5.80;;;;;;;;;;5050541;28;20202;-73
2023/03/05 11:57:23;;;;;;;11.07;6.50;;;;;;;;;;5051101;28;20247;-73
2023/03/05 11:59:50;;;;;;;10.80;6.23;;;;;;;;;;5048581;28;20211;-75
2023/03/05 12:02:19;;;;;;;10.50;5.53;;;;;;;;;;5048431;28;20314;-74
2023/03/05 12:04:46;;;;;;;10.93;5.80;;;;;;;;;;5046644;28;20197;-76
2023/03/05 12:07:14;;;;;;;10.30;5.87;;;;;;;;;;5050051;28;20192;-77
2023/03/05 12:09:42;;;;;;;8.83;5.17;;;;;;;;;;5050057;28;20190;-75
2023/03/05 12:12:29;;;;;;;11.60;6.03;;;;;;;;;;5044795;28;20292;-74
2023/03/05 12:15:11;;;;;;;9.53;5.73;;;;;;;;;;5056474;28;20211;-75
2023/03/05 12:17:56;;;;;;;10.93;5.80;;;;;;;;;;5045776;28;20180;-74
2023/03/05 12:20:42;;;;;;;10.53;5.70;;;;;;;;;;5046041;28;20234;-74
2023/03/05 12:23:16;;;;;;;9.70;5.43;;;;;;;;;;5036995;28;20213;-74
2023/03/05 12:25:45;;;;;;;10.07;5.70;;;;;;;;;;5042344;28;20194;-74
2023/03/05 12:28:16;;;;;;;11.50;6.00;;;;;;;;;;5045494;28;20280;-74
2023/03/05 12:30:42;;;;;;;12.03;6.00;;;;;;;;;;5044471;28;20676;-74
2023/03/05 12:33:28;;;;;;;10.93;5.50;;;;;;;;;;5045189;28;20548;-75
2023/03/05 12:36:14;;;;;;;10.33;4.83;;;;;;;;;;5042523;28;20283;-76
2023/03/05 12:38:41;;;;;;;8.10;5.23;;;;;;;;;;5043185;28;20188;-76
2023/03/05 12:41:22;;;;;;;10.87;5.20;;;;;;;;;;5012737;28;20217;-76
2023/03/05 12:44:04;;;;;;;11.13;5.60;;;;;;;;;;5044068;28;20197;-77
2023/03/05 12:46:36;;;;;;;11.07;6.27;;;;;;;;;;5047607;28;20178;-75
2023/03/05 12:49:22;;;;;;;10.47;5.37;;;;;;;;;;5045459;28;20185;-74
2023/03/05 12:51:49;;;;;;;9.07;4.80;;;;;;;;;;5048435;28;20217;-75
2023/03/05 12:54:19;;;;;;;8.20;5.03;;;;;;;;;;5039295;28;20976;-74
2023/03/05 12:56:46;;;;;;;10.80;5.87;;;;;;;;;;5027803;28;20191;-74
2023/03/05 12:59:13;;;;;;;8.47;4.80;;;;;;;;;;5031613;28;20793;-74
2023/03/05 13:01:45;;;;;;;11.10;5.67;;;;;;;;;;5044920;28;20812;-74
2023/03/05 13:04:18;;;;;;;8.47;5.23;;;;;;;;;;5046861;28;20850;-73
2023/03/05 13:06:44;;;;;;;10.70;5.33;;;;;;;;;;5046643;28;20181;-73
2023/03/05 13:09:26;;;;;;;11.17;6.00;;;;;;;;;;5046393;28;20253;-73
2023/03/05 13:11:53;;;;;;;11.70;6.10;;;;;;;;;;5042602;28;20220;-73
2023/03/05 13:14:25;;;;;;;11.67;6.33;;;;;;;;;;5036998;28;20198;-73
2023/03/05 13:16:51;;;;;;;9.97;5.30;;;;;;;;;;5043504;28;20181;-72
2023/03/05 13:19:18;;;;;;;11.30;6.03;;;;;;;;;;5044551;28;20197;-72
2023/03/05 13:21:44;;;;;;;9.43;5.87;;;;;;;;;;5044558;28;20729;-74
2023/03/05 13:24:18;;;;;;;9.33;5.37;;;;;;;;;;5044700;28;20692;-73
2023/03/05 13:26:44;;;;;;;10.60;5.60;;;;;;;;;;5047299;28;20189;-72
2023/03/05 13:29:15;;;;;;;8.70;5.20;;;;;;;;;;5045369;28;20664;-73
2023/03/05 13:31:42;;;;;;;8.60;5.63;;;;;;;;;;5040292;28;20293;-73
2023/03/05 13:34:22;;;;;;;10.73;5.53;;;;;;;;;;5040642;28;20186;-73
2023/03/05 13:36:52;;;;;;;14.17;5.23;;;;;;;;;;5043931;28;20205;-72
2023/03/05 13:39:20;;;;;;;7.37;4.53;;;;;;;;;;5040321;28;20182;-73
2023/03/05 13:41:58;;;;;;;9.30;5.00;;;;;;;;;;5041700;28;20198;-73
2023/03/05 13:44:24;;;;;;;10.00;4.73;;;;;;;;;;5040560;28;20242;-72
2023/03/05 13:46:51;;;;;;;8.07;4.60;;;;;;;;;;5042089;28;20216;-73
2023/03/05 13:49:23;;;;;;;7.70;4.57;;;;;;;;;;5042842;28;20182;-73
2023/03/05 13:51:52;;;;;;;8.83;4.90;;;;;;;;;;5041199;28;20359;-73
2023/03/05 13:54:19;;;;;;;7.67;4.93;;;;;;;;;;5040914;28;20269;-73
2023/03/05 13:56:58;;;;;;;9.53;4.73;;;;;;;;;;5040713;28;20273;-73
2023/03/05 13:59:27;;;;;;;6.43;4.33;;;;;;;;;;5043615;28;20526;-72
2023/03/05 14:01:54;;;;;;;8.57;4.67;;;;;;;;;;5043688;28;20677;-73
2023/03/05 14:04:22;;;;;;;8.50;4.80;;;;;;;;;;5044523;28;20186;-77
2023/03/05 14:06:59;;;;;;;9.33;4.90;;;;;;;;;;5046980;28;20190;-79
2023/03/05 14:09:27;;;;;;;10.20;5.00;;;;;;;;;;5048175;28;20186;-75
2023/03/05 14:11:54;;;;;;;7.67;4.53;;;;;;;;;;5046998;28;20537;-78
2023/03/05 14:14:22;;;;;;;8.17;4.70;;;;;;;;;;5045530;28;20196;-74
2023/03/05 14:16:48;;;;;;;8.97;4.63;;;;;;;;;;5044573;28;20243;-75
2023/03/05 14:19:33;;;;;;;9.23;4.93;;;;;;;;;;5046063;28;20177;-74
2023/03/05 14:21:59;;;;;;;9.03;4.43;;;;;;;;;;5049188;28;20193;-74
2023/03/05 14:24:30;;;;;;;9.97;5.40;;;;;;;;;;5041231;28;20182;-74
2023/03/05 14:27:04;;;;;;;8.40;5.07;;;;;;;;;;5049900;28;20186;-74
2023/03/05 14:29:31;;;;;;;7.53;4.73;;;;;;;;;;5050402;28;21020;-74
2023/03/05 14:32:03;;;;;;;8.87;4.80;;;;;;;;;;5044188;28;20205;-74